Rancho Mirage, CA (92270)

1:30 PM PST on February 13, 2016 (GMT -0800)
Aldea the Vistas | | Change Station
CLOSE
Current Station
Personal Weather Station
Location: Cathedral City, CA
Elevation: 282 ft
Nearby Weather Stations

Elev 282 ft 33.79 °N, 116.45 °W | Updated 20 seconds ago

Partly Cloudy
Partly Cloudy
85.3 °F
Feels Like 82 °F
N
2.5
Wind Variable Wind from SE
Gusts 2.5 mph

Today
High -- | Low -- °F
--% Chance of Precip.
Yesterday
High -- | Low -- °F
Precip. -- in
Pressure 30.01 in
Visibility 10.0 miles
Clouds Scattered Clouds 20000 ft
Heat Index 82 °F
Dew Point 25 °F
Humidity 11%
Rainfall 0.00 in
Snow Depth Not available.
6:32 AM 5:27 PM
Waxing Crescent, 34% visible
METAR KPSP 132053Z VRB03KT 10SM SCT200 29/M04 A3001 RMK AO2 SLP160 T02891039 58023
Pressure 30.01 in
Visibility 10.0 miles
Clouds Scattered Clouds 20000 ft
Heat Index 82 °F
Dew Point 25 °F
Humidity 11%
Rainfall 0.00 in
Snow Depth Not available.
6:32 AM 5:27 PM
Waxing Crescent, 34% visible
METAR KPSP 132053Z VRB03KT 10SM SCT200 29/M04 A3001 RMK AO2 SLP160 T02891039 58023

10-Day Weather Forecast

Almanac

Astronomy

Feb. 13, 2016 Rise Set
Actual Time
Civil Twilight
Nautical Twilight
Astronomical Twilight
Moon
Length of Visible Light
Length of Day
Tomorrow will be .
, % of the Moon is Illuminated

Today's Extremes

State Highs State Lows

Community

WunderPhotos

Upload Photos

1,892,670 photos uploaded!

WunderBlog® & News

Nearby

Air Quality

  Air Quality AQ Index Pollutant
Not available.

Snow Depth

Station Depth Elevation

Earthquake Activity

City Distance Mag. Time & Date
Minimum magnitude displayed is 2.5.

Coastal Water Temperatures

Place Temperature

Stations

Nearby Weather Stations

Station Location Temp. Windchill Dew Point Humidity Wind Precip. Elev Updated Type
                   

Watches & Warnings

There are currently no watches in effect.